Stations météo

réclame
Mon MeteoGroup
Ecija, Espagne (8395): Température de l'air & dewpoint: 12.01.2019 13:00:00 - 18.01.2019 13:00:00 (CET)Ecija, Espagne (8395): Vitesse du vent & gusts: 12.01.2019 13:00:00 - 18.01.2019 13:00:00 (CET)Ecija, Espagne (8395): Direction du vent: 12.01.2019 13:00:00 - 18.01.2019 13:00:00 (CET)Ecija, Espagne (8395): reduced air pressure: 12.01.2019 13:00:00 - 18.01.2019 13:00:00 (CET)Ecija, Espagne (8395): Quantités de précipitations: 12.01.2019 13:00:00 - 18.01.2019 13:00:00 (CET)
Date & Time tt [°C] td [°C] ff [km/h] ff [knt] fx [km/h] fx [knt] dd ppp [hPa] rr [mm]
18.01.2019 13:00:00 - - - - - - - - -
18.01.2019 12:00:00 9,9 4,3 8 4 15 8 N 1023,0 0,0
18.01.2019 11:00:00 6,6 4,1 2 1 5 3 NNE 1022,7 0,0
18.01.2019 10:00:00 2,9 2,1 2 1 6 3 SW 1022,1 0,0
18.01.2019 09:00:00 1,1 0,2 1 1 6 4 ESE 1022,2 0,0
18.01.2019 08:00:00 1,4 0,4 0 0 5 3 NW 1021,6 0,0
18.01.2019 07:00:00 1,9 0,4 0 0 4 2 N 1020,9 -
18.01.2019 06:00:00 3,2 1,3 2 1 5 3 SW 1020,5 0,0
18.01.2019 05:00:00 4,2 1,7 1 1 3 2 SSW 1020,5 0,0
18.01.2019 04:00:00 4,8 1,9 2 1 7 4 N 1020,8 0,0
18.01.2019 03:00:00 6,1 2,7 4 2 6 4 NW 1020,4 0,0
18.01.2019 02:00:00 7,6 3,8 1 0 8 4 N 1020,2 0,0
18.01.2019 01:00:00 7,8 3,8 3 2 4 2 NW 1020,7 -
18.01.2019 00:00:00 8,8 3,9 0 0 6 3 ESE 1020,7 0,0
17.01.2019 23:00:00 9,0 4,3 0 0 2 1 NW 1020,2 0,0
17.01.2019 22:00:00 9,5 4,1 1 1 8 5 N 1019,9 0,0
17.01.2019 21:00:00 9,7 4,1 7 4 8 4 WNW 1019,6 0,0
17.01.2019 20:00:00 10,3 3,9 0 0 6 4 N 1019,2 0,0
17.01.2019 19:00:00 9,7 3,4 8 4 13 7 NW 1018,7 -
17.01.2019 18:00:00 12,1 4,3 10 5 14 7 NW 1018,2 0,0
17.01.2019 17:00:00 14,1 4,3 5 3 11 6 N 1017,7 0,0
17.01.2019 16:00:00 13,1 5,0 3 2 16 9 NNE 1017,9 0,0
17.01.2019 15:00:00 12,3 5,0 6 3 15 8 N 1018,3 0,0
17.01.2019 14:00:00 12,1 5,0 4 2 13 7 NNE 1018,8 0,0
17.01.2019 13:00:00 10,8 5,1 2 1 8 4 NNE 1019,9 -
17.01.2019 12:00:00 9,5 5,1 4 2 9 5 NE 1020,6 0,0
17.01.2019 11:00:00 7,4 4,6 0 0 3 2 NNE 1020,8 0,0
17.01.2019 10:00:00 6,0 3,9 1 1 9 5 E 1020,1 0,0
17.01.2019 09:00:00 4,3 2,7 0 0 3 2 ESE 1019,9 0,0
17.01.2019 08:00:00 4,3 2,7 0 0 5 3 NNE 1019,5 0,0
17.01.2019 07:00:00 4,5 2,5 3 2 4 2 NNW 1019,1 -
17.01.2019 06:00:00 5,3 3,2 4 2 6 4 NNE 1019,0 0,0
17.01.2019 05:00:00 5,1 2,7 4 2 6 3 NNW 1019,0 0,0
17.01.2019 04:00:00 6,6 3,4 2 1 6 4 E 1019,2 0,0
17.01.2019 03:00:00 7,0 3,8 2 1 7 4 ESE 1019,3 0,0
17.01.2019 02:00:00 7,0 3,6 4 2 8 4 SE 1019,8 0,0
17.01.2019 01:00:00 7,1 3,6 2 1 4 2 S 1020,1 -
17.01.2019 00:00:00 6,9 3,4 0 0 8 4 SSE 1020,5 0,0
16.01.2019 23:00:00 6,9 3,2 3 1 5 3 SE 1020,4 0,0
16.01.2019 22:00:00 7,8 3,4 0 0 4 2 E 1020,0 0,0
16.01.2019 21:00:00 7,7 2,5 3 1 5 3 SSW 1019,8 0,0
16.01.2019 20:00:00 9,3 2,9 4 2 5 3 SSW 1019,3 0,0
16.01.2019 19:00:00 10,6 2,9 3 1 5 3 WNW 1019,2 -
16.01.2019 18:00:00 13,5 3,8 2 1 8 4 NNE 1018,9 0,0
16.01.2019 17:00:00 14,6 4,3 5 3 13 7 N 1018,7 0,0
16.01.2019 16:00:00 15,5 5,1 9 5 16 9 NNW 1019,0 0,0
16.01.2019 15:00:00 14,5 5,6 9 5 16 9 NW 1019,5 0,0
16.01.2019 14:00:00 14,8 4,5 5 3 13 7 NNW 1020,0 0,0
16.01.2019 13:00:00 14,6 6,2 8 4 14 7 SE 1020,7 -
16.01.2019 12:00:00 12,5 7,0 7 4 14 7 SE 1021,8 0,0
16.01.2019 11:00:00 10,1 6,4 4 2 9 5 ESE 1022,4 0,0
16.01.2019 10:00:00 7,1 5,5 2 1 5 3 ENE 1022,3 0,0
16.01.2019 09:00:00 4,0 2,9 0 0 6 3 N 1022,2 0,0
16.01.2019 08:00:00 5,3 4,1 1 1 6 3 SE 1021,8 0,0
16.01.2019 07:00:00 4,9 3,8 1 0 3 1 SSE 1021,7 -
16.01.2019 06:00:00 5,0 3,8 1 1 4 2 SW 1021,7 0,0
16.01.2019 05:00:00 4,8 3,2 1 0 4 2 SSW 1022,0 0,0
16.01.2019 04:00:00 6,1 4,3 1 1 5 3 SSE 1022,4 0,0
16.01.2019 03:00:00 6,3 4,5 4 2 6 3 S 1022,3 0,0
16.01.2019 02:00:00 6,0 4,6 5 3 9 5 S 1022,6 0,0
16.01.2019 01:00:00 4,9 3,6 4 2 5 3 S 1022,9 -
16.01.2019 00:00:00 4,7 2,9 1 0 8 4 SE 1023,4 0,0
15.01.2019 23:00:00 5,3 3,2 4 2 6 3 SE 1023,0 0,0
15.01.2019 22:00:00 5,6 2,9 0 0 5 3 SE 1022,9 0,0
15.01.2019 21:00:00 6,7 3,2 1 0 3 1 S 1022,4 0,0
15.01.2019 20:00:00 8,0 3,4 2 1 6 4 SSW 1021,8 0,0
15.01.2019 19:00:00 9,1 3,4 6 3 8 4 W 1021,5 -
15.01.2019 18:00:00 11,2 3,8 5 3 16 9 W 1021,1 0,0
15.01.2019 17:00:00 14,8 6,1 9 5 21 11 W 1020,8 0,0
15.01.2019 16:00:00 15,5 6,2 11 6 22 12 W 1020,7 0,0
15.01.2019 15:00:00 15,6 6,1 6 3 12 6 W 1020,6 0,0
15.01.2019 14:00:00 13,3 4,6 4 2 6 3 E 1021,5 0,0
15.01.2019 13:00:00 10,5 3,6 2 1 7 4 SW 1022,6 -
15.01.2019 12:00:00 7,5 3,0 0 0 4 2 SE 1023,6 0,0
15.01.2019 11:00:00 5,3 2,1 1 1 5 3 ESE 1023,7 0,0
15.01.2019 10:00:00 2,8 1,1 1 1 3 2 SE 1023,4 0,0
15.01.2019 09:00:00 0,9 -1,0 1 0 3 2 W 1022,8 0,0
15.01.2019 08:00:00 1,5 -0,5 0 0 4 2 N 1022,3 0,0
15.01.2019 07:00:00 1,6 -0,5 0 0 5 3 SE 1022,0 -
15.01.2019 06:00:00 2,0 0,0 2 1 5 3 S 1021,9 0,0
15.01.2019 05:00:00 1,8 -0,3 3 2 8 5 SSE 1022,0 0,0
15.01.2019 04:00:00 1,7 -0,7 4 2 5 3 S 1022,3 0,0
15.01.2019 03:00:00 2,2 -0,5 3 2 9 5 S 1022,6 0,0
15.01.2019 02:00:00 2,4 -0,5 6 3 8 4 SSE 1022,5 0,0
15.01.2019 01:00:00 2,8 -0,7 3 2 7 4 S 1022,5 -
15.01.2019 00:00:00 3,9 -0,7 1 1 6 3 SE 1022,9 0,0
14.01.2019 23:00:00 4,8 -0,7 0 0 5 3 SSW 1022,9 0,0
14.01.2019 22:00:00 6,2 -0,5 3 2 11 6 S 1022,7 0,0
14.01.2019 21:00:00 8,7 -0,7 0 0 13 7 NNW 1022,1 0,0
14.01.2019 20:00:00 9,7 -0,3 10 5 14 8 WSW 1021,7 0,0
14.01.2019 19:00:00 11,0 -0,5 7 4 9 5 W 1021,6 -
14.01.2019 18:00:00 14,0 0,9 6 4 9 5 W 1021,3 0,0
14.01.2019 17:00:00 17,4 1,3 6 3 11 6 WNW 1021,3 0,0
14.01.2019 16:00:00 17,3 1,7 4 2 10 5 W 1021,7 0,0
14.01.2019 15:00:00 16,4 2,1 4 2 10 5 WNW 1022,2 0,0
14.01.2019 14:00:00 14,7 2,3 3 2 10 5 NNW 1023,2 0,0
14.01.2019 13:00:00 - - - - - - - - -
14.01.2019 12:00:00 9,0 0,9 3 1 8 4 NE 1026,1 0,0
14.01.2019 11:00:00 5,4 0,2 3 2 11 6 NE 1026,7 0,0
14.01.2019 10:00:00 1,8 -1,2 1 1 4 2 NNE 1026,8 0,0
14.01.2019 09:00:00 -1,4 -3,0 0 0 3 1 N 1026,7 0,0
14.01.2019 08:00:00 -1,3 -3,0 0 0 5 3 SSW 1026,5 0,0
14.01.2019 07:00:00 -1,1 -2,7 0 0 4 2 SSW 1026,4 -
14.01.2019 06:00:00 -1,0 -3,3 1 1 5 3 ESE 1026,6 0,0
14.01.2019 05:00:00 0,3 -2,2 2 1 9 5 SSE 1026,8 0,0
14.01.2019 04:00:00 0,0 -2,5 3 2 6 4 SE 1027,3 0,0
14.01.2019 03:00:00 0,8 -2,0 0 0 5 3 SSE 1027,3 0,0
14.01.2019 02:00:00 1,0 -2,0 0 0 3 1 N 1027,4 0,0
14.01.2019 01:00:00 1,2 -2,5 1 1 3 2 S 1027,3 -
14.01.2019 00:00:00 2,2 -2,7 2 1 6 3 SSW 1027,7 0,0
13.01.2019 23:00:00 3,7 -2,0 0 0 3 1 SSE 1027,6 0,0
13.01.2019 22:00:00 4,7 -2,2 1 0 6 3 NNW 1027,2 0,0
13.01.2019 21:00:00 6,4 -2,2 3 1 8 4 N 1027,1 0,0
13.01.2019 20:00:00 7,9 -2,2 2 1 7 4 NNW 1026,9 0,0
13.01.2019 19:00:00 10,3 -2,5 6 3 8 4 NNW 1026,5 -
13.01.2019 18:00:00 14,3 -1,4 2 1 8 5 N 1026,2 0,0
13.01.2019 17:00:00 16,9 -0,3 5 3 12 6 NE 1025,9 0,0
13.01.2019 16:00:00 17,0 0,2 6 3 19 11 NE 1026,2 0,0
13.01.2019 15:00:00 16,4 0,4 6 4 17 9 ENE 1026,6 0,0
13.01.2019 14:00:00 14,5 0,4 7 4 14 8 ENE 1027,7 0,0
13.01.2019 13:00:00 12,1 0,0 8 5 16 8 E 1029,1 -
13.01.2019 12:00:00 9,2 -0,5 3 2 8 5 NE 1030,9 0,0
13.01.2019 11:00:00 6,1 -1,2 2 1 6 4 E 1030,8 0,0
13.01.2019 10:00:00 2,4 -2,0 4 2 8 4 N 1030,7 0,0
13.01.2019 09:00:00 -0,7 -3,3 0 0 1 1 N 1030,5 0,0
13.01.2019 08:00:00 -0,8 -3,0 1 1 7 4 E 1030,2 0,0
13.01.2019 07:00:00 -1,0 -3,3 0 0 7 4 ENE 1030,2 -
13.01.2019 06:00:00 0,0 -2,7 3 2 5 3 S 1030,0 0,0
13.01.2019 05:00:00 -0,5 -3,0 0 0 3 2 S 1030,0 0,0
13.01.2019 04:00:00 -0,6 -3,9 0 0 5 3 SSW 1030,3 0,0
13.01.2019 03:00:00 -0,2 -4,2 0 0 3 1 N 1030,4 0,0
13.01.2019 02:00:00 0,4 -4,5 2 1 3 2 SSE 1030,1 0,0
13.01.2019 01:00:00 2,2 -3,6 1 1 6 4 E 1030,2 -
13.01.2019 00:00:00 2,3 -4,2 0 0 5 3 N 1030,3 0,0
12.01.2019 23:00:00 3,7 -3,6 1 1 4 2 SSE 1030,4 0,0
12.01.2019 22:00:00 4,4 -3,6 0 0 5 3 SE 1029,8 0,0
12.01.2019 21:00:00 4,5 -4,8 5 3 6 4 N 1029,5 0,0
12.01.2019 20:00:00 7,1 -4,2 0 0 5 3 N 1029,1 0,0
12.01.2019 19:00:00 9,1 -3,6 5 3 7 4 NW 1028,5 -
12.01.2019 18:00:00 12,9 -2,0 3 1 9 5 NE 1028,0 0,0
12.01.2019 17:00:00 15,0 -0,7 5 3 13 7 NE 1027,6 0,0
12.01.2019 16:00:00 14,8 -0,3 6 4 18 10 NE 1027,5 0,0
12.01.2019 15:00:00 14,5 0,4 6 4 17 9 NE 1027,7 0,0
12.01.2019 14:00:00 13,5 -0,3 5 3 14 8 NE 1028,5 0,0
12.01.2019 13:00:00 11,6 -0,5 8 4 14 8 E 1029,3 -

tt = Température de l'air
td = dewpoint
ff = Vitesse du vent
fx = gusts
dd = Direction du vent
ppp = reduced air pressure
rr = Quantités de précipitations

stations d'obs. à proximité